createdAt,value
2023-03-03T00:02:13.110Z,100707.88
2023-03-03T00:05:00.129Z,100714.06
2023-03-03T00:07:47.066Z,100708.84
2023-03-03T00:10:34.381Z,100712.34
2023-03-03T00:13:21.426Z,100713.28
2023-03-03T00:16:08.630Z,100714.25
2023-03-03T00:18:57.363Z,100713.38
2023-03-03T00:22:01.619Z,100733.63
2023-03-03T00:24:58.114Z,100724.09
2023-03-03T00:27:57.297Z,100727.53
2023-03-03T00:30:46.434Z,100733.72
2023-03-03T00:33:44.769Z,100724.13
2023-03-03T00:36:43.600Z,100724.19
2023-03-03T00:39:58.274Z,100728.66
2023-03-03T00:42:47.749Z,100726.03
2023-03-03T00:45:50.237Z,100738.38
2023-03-03T00:48:46.809Z,100734.91
2023-03-03T00:51:42.867Z,100728.81
2023-03-03T00:54:29.857Z,100728.84
2023-03-03T00:57:16.836Z,100722.13
2023-03-03T01:00:04.209Z,100740.38
2023-03-03T01:02:52.187Z,100734.34
2023-03-03T01:05:40.220Z,100727.34
2023-03-03T01:08:27.515Z,100734.38
2023-03-03T01:11:17.358Z,100738.81
2023-03-03T01:14:08.377Z,100678.38
2023-03-03T01:16:55.708Z,100737.13
2023-03-03T01:19:42.691Z,100664.69
2023-03-03T01:22:29.778Z,100731.13
2023-03-03T01:25:16.630Z,100730.25
2023-03-03T01:28:03.679Z,100730.31
2023-03-03T01:30:51.298Z,100724.25
2023-03-03T01:33:38.846Z,100733.03
2023-03-03T01:36:26.074Z,100723.44
2023-03-03T01:39:14.700Z,100728.75
2023-03-03T01:42:01.737Z,100714.09
2023-03-03T01:44:49.191Z,100694.25
2023-03-03T01:47:40.162Z,100723.63
2023-03-03T01:50:32.711Z,100706.44
2023-03-03T01:53:22.386Z,100709.00
2023-03-03T01:56:13.229Z,100680.56
2023-03-03T01:59:04.118Z,100716.84
2023-03-03T02:01:53.084Z,100713.38
2023-03-03T02:04:40.246Z,100714.31
2023-03-03T02:07:29.720Z,100705.59
2023-03-03T02:10:29.164Z,100712.66
2023-03-03T02:13:17.928Z,100704.84
2023-03-03T02:16:25.058Z,100696.09
2023-03-03T02:19:12.523Z,100692.63
2023-03-03T02:21:59.487Z,100697.94
2023-03-03T02:25:19.303Z,100695.38
2023-03-03T02:28:06.245Z,100698.91
2023-03-03T02:30:58.694Z,100691.09
2023-03-03T02:33:46.977Z,100676.25
2023-03-03T02:36:46.586Z,100628.00
2023-03-03T02:39:38.985Z,100705.28
2023-03-03T02:42:37.239Z,100663.50
2023-03-03T02:45:24.823Z,100667.03
2023-03-03T02:48:12.319Z,100669.63
2023-03-03T02:50:59.319Z,100687.94
2023-03-03T02:53:46.369Z,100684.53
2023-03-03T02:56:33.394Z,100685.41
2023-03-03T02:59:20.708Z,100646.44
2023-03-03T03:02:09.865Z,100653.47
2023-03-03T03:04:57.067Z,100675.06
2023-03-03T03:07:44.989Z,100675.94
2023-03-03T03:10:32.810Z,100665.44
2023-03-03T03:13:19.889Z,100669.00
2023-03-03T03:16:08.994Z,100672.50
2023-03-03T03:18:56.066Z,100671.69
2023-03-03T03:21:43.021Z,100670.81
2023-03-03T03:24:30.927Z,100662.09
2023-03-03T03:27:22.544Z,100651.75
2023-03-03T03:30:10.921Z,100660.44
2023-03-03T03:32:58.909Z,100648.19
2023-03-03T03:35:46.033Z,100650.88
2023-03-03T03:38:35.231Z,100652.63
2023-03-03T03:41:22.709Z,100642.25
2023-03-03T03:44:09.887Z,100649.19
2023-03-03T03:46:56.842Z,100643.09
2023-03-03T03:49:44.130Z,100577.56
2023-03-03T03:52:32.346Z,100630.16
2023-03-03T03:55:19.689Z,100649.28
2023-03-03T03:58:09.060Z,100635.38
2023-03-03T04:00:56.108Z,100636.22
2023-03-03T04:03:43.007Z,100633.63
2023-03-03T04:06:33.875Z,100631.88
2023-03-03T04:09:21.599Z,100629.28
2023-03-03T04:12:08.969Z,100617.03
2023-03-03T04:14:56.043Z,100611.84
2023-03-03T04:17:43.793Z,100613.63
2023-03-03T04:20:34.319Z,100594.63
2023-03-03T04:23:21.890Z,100606.72
2023-03-03T04:26:10.370Z,100609.38
2023-03-03T04:28:57.911Z,100610.31
2023-03-03T04:31:45.361Z,100613.88
2023-03-03T04:34:32.362Z,100612.16
2023-03-03T04:37:19.482Z,100607.81
2023-03-03T04:40:06.470Z,100603.53
2023-03-03T04:42:54.816Z,100593.28
2023-03-03T04:45:41.811Z,100600.09
2023-03-03T04:48:29.922Z,100592.25
2023-03-03T04:51:16.970Z,100580.22
2023-03-03T04:54:05.226Z,100590.66
2023-03-03T04:56:52.501Z,100589.78
2023-03-03T04:59:39.474Z,100574.22
2023-03-03T05:02:26.606Z,100584.66
2023-03-03T05:05:13.644Z,100584.69
2023-03-03T05:08:01.308Z,100582.09
2023-03-03T05:10:48.257Z,100581.25
2023-03-03T05:13:35.555Z,100580.44
2023-03-03T05:16:22.721Z,100548.53
2023-03-03T05:19:09.988Z,100558.72
2023-03-03T05:21:56.989Z,100570.94
2023-03-03T05:24:44.048Z,100557.84
2023-03-03T05:27:31.118Z,100549.09
2023-03-03T05:30:18.154Z,100537.78
2023-03-03T05:33:05.282Z,100533.44
2023-03-03T05:35:52.718Z,100523.00
2023-03-03T05:38:39.908Z,100525.66
2023-03-03T05:41:26.893Z,100521.34
2023-03-03T05:44:13.767Z,100518.78
2023-03-03T05:47:00.726Z,100508.34
2023-03-03T05:49:47.892Z,100498.72
2023-03-03T05:52:35.026Z,100472.84
2023-03-03T05:55:22.015Z,100491.81
2023-03-03T05:58:08.897Z,100441.69
2023-03-03T06:00:55.793Z,100476.97
2023-03-03T06:03:42.710Z,100472.63
2023-03-03T06:06:29.651Z,100466.56
2023-03-03T06:09:16.637Z,100402.69
2023-03-03T06:12:03.535Z,100454.31
2023-03-03T06:14:50.742Z,100442.09
2023-03-03T06:17:37.630Z,100440.38
2023-03-03T06:20:25.046Z,100391.19
2023-03-03T06:23:11.940Z,100423.75
2023-03-03T06:25:59.570Z,100422.00
2023-03-03T06:28:46.606Z,100412.38
2023-03-03T06:31:33.717Z,100391.59
2023-03-03T06:34:20.758Z,100384.38
2023-03-03T06:37:08.015Z,100388.75
2023-03-03T06:39:54.982Z,100372.25
2023-03-03T06:42:42.020Z,100365.22
2023-03-03T06:45:29.485Z,100351.91
2023-03-03T06:48:16.416Z,100341.41
2023-03-03T06:51:03.638Z,100336.16
2023-03-03T06:53:52.358Z,100331.69
2023-03-03T06:56:39.362Z,100325.66
2023-03-03T06:59:33.182Z,100318.47
2023-03-03T07:02:20.435Z,100309.63
2023-03-03T07:05:07.688Z,100295.56
2023-03-03T07:07:54.559Z,100282.41
2023-03-03T07:10:48.911Z,100284.97
2023-03-03T07:13:47.498Z,100284.91
2023-03-03T07:16:36.465Z,100265.56
2023-03-03T07:19:23.557Z,100248.00
2023-03-03T07:22:11.961Z,100245.25
2023-03-03T07:24:59.105Z,100101.44
2023-03-03T07:27:47.132Z,100223.25
2023-03-03T07:30:41.748Z,100225.78
2023-03-03T07:33:58.226Z,100227.50
2023-03-03T07:36:54.698Z,100219.50
2023-03-03T07:40:04.891Z,100182.22
2023-03-03T07:43:02.005Z,100150.28
2023-03-03T07:45:58.227Z,100199.03
2023-03-03T07:48:54.676Z,100181.69
2023-03-03T07:51:59.566Z,100183.09
2023-03-03T07:54:56.296Z,100176.84
2023-03-03T07:57:50.163Z,100157.44
2023-03-03T08:00:37.066Z,100121.00
2023-03-03T08:03:32.424Z,100133.56
2023-03-03T08:06:26.640Z,100126.47
2023-03-03T08:09:13.833Z,100122.78
2023-03-03T08:12:28.130Z,100120.09
2023-03-03T08:15:16.803Z,100094.69
2023-03-03T08:18:04.689Z,100095.31
2023-03-03T08:21:07.011Z,100088.22
2023-03-03T08:23:53.943Z,100083.69
2023-03-03T08:26:42.809Z,100038.56
2023-03-03T08:29:29.736Z,100065.94
2023-03-03T08:32:16.721Z,100056.19
2023-03-03T08:35:03.678Z,100030.06
2023-03-03T08:37:50.693Z,100030.50
2023-03-03T08:40:37.662Z,100020.78
2023-03-03T08:43:24.704Z,100004.19
2023-03-03T08:46:13.834Z,100002.13
2023-03-03T08:49:00.654Z,99996.75
2023-03-03T08:51:47.594Z,99930.25
2023-03-03T08:54:34.616Z,99959.94
2023-03-03T08:57:21.614Z,99966.63
2023-03-03T09:00:08.654Z,99961.25
2023-03-03T09:02:55.656Z,99921.41
2023-03-03T09:05:44.578Z,99931.19
2023-03-03T09:08:31.474Z,99929.31
2023-03-03T09:11:18.610Z,99921.31
2023-03-03T09:14:05.559Z,99910.66
2023-03-03T09:16:57.985Z,99903.56
2023-03-03T09:19:50.125Z,99892.03
2023-03-03T09:22:45.965Z,99883.16
2023-03-03T09:25:42.776Z,99874.38
2023-03-03T09:28:55.949Z,99867.09
2023-03-03T09:31:47.465Z,99862.59
2023-03-03T09:34:46.463Z,99855.47
2023-03-03T09:37:57.078Z,99846.59
2023-03-03T09:40:53.256Z,99834.16
2023-03-03T09:43:52.760Z,99820.00
2023-03-03T09:47:11.812Z,99819.94
2023-03-03T09:50:23.319Z,99811.06
2023-03-03T09:53:40.754Z,99807.50
2023-03-03T09:56:45.040Z,99799.53
2023-03-03T09:59:42.188Z,99776.72
2023-03-03T10:02:47.695Z,99775.72
2023-03-03T10:05:37.238Z,99761.63
2023-03-03T10:08:31.618Z,99751.09
2023-03-03T10:11:32.005Z,99747.53
2023-03-03T10:14:34.015Z,99731.69
2023-03-03T10:17:56.711Z,99702.94
2023-03-03T10:20:52.801Z,99704.41
2023-03-03T10:23:52.007Z,99696.44
2023-03-03T10:27:01.323Z,99692.94
2023-03-03T10:30:04.646Z,99671.88
2023-03-03T10:33:09.604Z,99669.19
2023-03-03T10:36:22.586Z,99660.44
2023-03-03T10:39:21.885Z,99646.41
2023-03-03T10:42:18.067Z,99637.66
2023-03-03T10:45:17.776Z,99635.03
2023-03-03T10:48:04.803Z,99622.88
2023-03-03T10:51:01.557Z,99615.03
2023-03-03T10:53:57.779Z,99603.72
2023-03-03T10:57:09.381Z,99589.78
2023-03-03T11:00:40.907Z,99582.88
2023-03-03T11:03:44.889Z,99576.84
2023-03-03T11:06:31.841Z,99557.56
2023-03-03T11:09:28.333Z,99560.25
2023-03-03T11:12:48.199Z,99540.16
2023-03-03T11:15:53.728Z,99534.16
2023-03-03T11:19:02.356Z,99483.44
2023-03-03T11:22:01.962Z,99484.16
2023-03-03T11:25:08.936Z,99508.72
2023-03-03T11:28:22.103Z,99496.44
2023-03-03T11:31:21.014Z,99488.53
2023-03-03T11:34:32.411Z,99478.00
2023-03-03T11:37:28.016Z,99452.84
2023-03-03T11:40:21.068Z,99456.97
2023-03-03T11:43:29.890Z,99443.72
2023-03-03T11:46:34.920Z,99436.69
2023-03-03T11:49:29.329Z,99428.88
2023-03-03T11:52:25.318Z,99422.66
2023-03-03T11:55:41.566Z,99414.63
2023-03-03T11:58:45.020Z,99404.00
2023-03-03T12:01:50.938Z,99377.91
2023-03-03T12:04:50.750Z,99362.59
2023-03-03T12:07:55.070Z,99385.44
2023-03-03T12:10:53.671Z,99374.91
2023-03-03T12:13:59.230Z,99359.03
2023-03-03T12:17:11.503Z,99354.63
2023-03-03T12:20:05.149Z,99349.28
2023-03-03T12:23:06.455Z,99347.50
2023-03-03T12:26:16.579Z,99339.63
2023-03-03T12:29:33.639Z,99322.78
2023-03-03T12:32:33.534Z,99282.78
2023-03-03T12:35:33.210Z,99322.63
2023-03-03T12:39:03.800Z,99317.28
2023-03-03T12:41:56.366Z,99325.09
2023-03-03T12:44:59.162Z,99315.44
2023-03-03T12:47:58.352Z,99317.13
2023-03-03T12:50:56.378Z,99318.00
2023-03-03T12:54:07.803Z,99313.56
2023-03-03T12:57:08.892Z,99299.34
2023-03-03T13:00:36.787Z,99315.13
2023-03-03T13:03:58.385Z,99314.09
2023-03-03T13:06:56.003Z,99306.13
2023-03-03T13:09:42.956Z,99311.22
2023-03-03T13:12:55.145Z,99306.75
2023-03-03T13:16:01.038Z,99311.91
2023-03-03T13:19:14.966Z,99301.38
2023-03-03T13:22:10.278Z,99308.34
2023-03-03T13:25:15.097Z,99309.53
2023-03-03T13:28:05.520Z,99324.22
2023-03-03T13:31:00.226Z,99311.31
2023-03-03T13:33:56.647Z,99315.88
2023-03-03T13:37:23.026Z,99331.50
2023-03-03T13:40:12.658Z,99331.50
2023-03-03T13:43:15.934Z,99332.53
2023-03-03T13:46:36.103Z,99331.25
2023-03-03T13:50:02.165Z,99351.81
2023-03-03T13:52:53.053Z,99358.00
2023-03-03T13:55:59.894Z,99365.06
2023-03-03T13:59:24.220Z,99366.84
2023-03-03T14:02:29.214Z,99380.94
2023-03-03T14:05:32.569Z,99394.19
2023-03-03T14:08:34.590Z,99411.75
2023-03-03T14:11:43.695Z,99419.81
2023-03-03T14:14:38.811Z,99419.19
2023-03-03T14:17:37.200Z,99424.53
2023-03-03T14:20:42.595Z,99437.78
2023-03-03T14:23:46.427Z,99431.81
2023-03-03T14:26:33.461Z,99452.03
2023-03-03T14:29:40.604Z,99442.66
2023-03-03T14:33:00.074Z,99461.84
2023-03-03T14:35:53.061Z,99465.50
2023-03-03T14:38:44.921Z,99472.53
2023-03-03T14:41:34.385Z,99486.63
2023-03-03T14:44:41.430Z,99491.59
2023-03-03T14:47:36.873Z,99502.19
2023-03-03T14:50:59.986Z,99504.81
2023-03-03T14:53:58.299Z,99511.03
2023-03-03T14:56:48.553Z,99514.50
2023-03-03T14:59:45.355Z,99526.91
2023-03-03T15:02:38.543Z,99530.50
2023-03-03T15:05:41.318Z,99540.16
2023-03-03T15:08:34.811Z,99535.91
2023-03-03T15:11:45.529Z,99536.00
2023-03-03T15:14:36.943Z,99549.22
2023-03-03T15:17:42.736Z,99558.97
2023-03-03T15:21:01.151Z,99564.28
2023-03-03T15:24:12.785Z,99574.13
2023-03-03T15:27:09.469Z,99545.38
2023-03-03T15:30:01.783Z,99572.75
2023-03-03T15:33:00.360Z,99590.22
2023-03-03T15:36:14.789Z,99590.41
2023-03-03T15:39:12.566Z,99602.56
2023-03-03T15:42:10.672Z,99600.94
2023-03-03T15:45:30.217Z,99601.00
2023-03-03T15:48:29.451Z,99585.41
2023-03-03T15:51:25.160Z,99619.56
2023-03-03T15:54:49.268Z,99623.16
2023-03-03T15:57:47.230Z,99627.63
2023-03-03T16:00:34.161Z,99635.53
2023-03-03T16:03:31.038Z,99647.06
2023-03-03T16:06:26.450Z,99636.59
2023-03-03T16:09:16.078Z,99640.16
2023-03-03T16:12:29.525Z,99590.75
2023-03-03T16:15:55.921Z,99643.91
2023-03-03T16:19:08.346Z,99628.66
2023-03-03T16:22:30.883Z,99653.78
2023-03-03T16:25:23.698Z,99645.09
2023-03-03T16:28:34.331Z,99649.56
2023-03-03T16:31:30.277Z,99651.44
2023-03-03T16:34:31.692Z,99648.00
2023-03-03T16:37:31.370Z,99661.22
2023-03-03T16:40:39.733Z,99654.41
2023-03-03T16:43:37.248Z,99658.94
2023-03-03T16:46:46.058Z,99653.94
2023-03-03T16:49:48.494Z,99664.38
2023-03-03T16:52:45.705Z,99666.16
2023-03-03T16:55:40.056Z,99659.25
2023-03-03T16:58:56.204Z,99666.34
2023-03-03T17:02:07.906Z,99663.78
2023-03-03T17:04:57.190Z,99666.41
2023-03-03T17:08:08.417Z,99607.63
2023-03-03T17:11:31.836Z,99671.97
2023-03-03T19:01:33.728Z,99715.16
2023-03-03T19:04:16.979Z,99716.13
2023-03-03T19:06:43.975Z,99714.38
2023-03-03T19:09:17.660Z,99710.88
2023-03-03T19:11:51.536Z,99712.72
2023-03-03T19:14:30.185Z,99660.78
2023-03-03T19:16:59.230Z,99724.00
2023-03-03T19:19:34.944Z,99716.13
2023-03-03T19:22:27.890Z,99727.56
2023-03-03T19:25:18.044Z,99721.44
2023-03-03T19:28:05.267Z,99659.91
2023-03-03T19:30:50.728Z,99725.91
2023-03-03T19:33:40.624Z,99730.31
2023-03-03T19:36:25.764Z,99732.06
2023-03-03T19:39:20.219Z,99740.00
2023-03-03T19:41:54.691Z,99736.53
2023-03-03T19:45:20.150Z,99733.09
2023-03-03T19:48:42.432Z,99734.03
2023-03-03T19:51:35.329Z,99682.13
2023-03-03T19:54:45.250Z,99758.56
2023-03-03T19:57:50.178Z,99686.50
2023-03-03T20:00:57.792Z,99748.13
2023-03-03T20:04:21.816Z,99749.09
2023-03-03T20:07:32.011Z,99751.72
2023-03-03T20:10:31.905Z,99752.59
2023-03-03T20:13:48.054Z,99752.66
2023-03-03T20:17:03.520Z,99754.41
2023-03-03T20:20:12.026Z,99742.31
2023-03-03T20:23:20.286Z,99755.34
2023-03-03T20:26:12.950Z,99750.09
2023-03-03T20:29:37.182Z,99755.34
2023-03-03T20:32:44.865Z,99767.59
2023-03-03T20:35:53.711Z,99764.97
2023-03-03T20:39:04.979Z,99776.41
2023-03-03T20:42:13.530Z,99765.03
2023-03-03T20:45:31.977Z,99769.47
2023-03-03T20:48:44.149Z,99756.28
2023-03-03T20:51:45.463Z,99772.03
2023-03-03T20:54:47.931Z,99750.19
2023-03-03T20:57:42.514Z,99754.53
2023-03-03T21:00:35.497Z,99765.03
2023-03-03T21:03:34.723Z,99767.66
2023-03-03T21:06:25.038Z,99757.16
2023-03-03T21:09:17.181Z,99764.16
2023-03-03T21:12:04.536Z,99764.16
2023-03-03T21:14:55.363Z,99759.84
2023-03-03T21:17:47.962Z,99732.72
2023-03-03T21:20:39.271Z,99759.97
2023-03-03T21:23:29.448Z,99760.84
2023-03-03T21:26:17.524Z,99766.09
2023-03-03T21:29:19.232Z,99733.88
2023-03-03T21:32:17.582Z,99726.81
2023-03-03T21:35:04.530Z,99768.91
2023-03-03T21:38:16.845Z,99763.69
2023-03-03T21:41:03.793Z,99764.69
2023-03-03T21:43:54.604Z,99765.59
2023-03-03T21:46:43.184Z,99772.69
2023-03-03T21:49:30.036Z,99781.47
2023-03-03T21:52:17.164Z,99777.16
2023-03-03T21:55:06.071Z,99779.91
2023-03-03T21:57:53.118Z,99775.63
2023-03-03T22:00:40.393Z,99787.13
2023-03-03T22:03:27.575Z,99798.66
2023-03-03T22:06:14.530Z,99795.34
2023-03-03T22:09:01.498Z,99785.88
2023-03-03T22:11:48.360Z,99788.66
2023-03-03T22:14:35.556Z,99799.38
2023-03-03T22:17:23.319Z,99725.59
2023-03-03T22:20:10.930Z,99773.69
2023-03-03T22:22:57.811Z,99804.09
2023-03-03T22:25:44.862Z,99798.09
2023-03-03T22:28:31.877Z,99798.16
2023-03-03T22:31:18.813Z,99806.09
2023-03-03T22:34:07.254Z,99804.50
2023-03-03T22:36:54.402Z,99749.88
2023-03-03T22:39:41.279Z,99798.59
2023-03-03T22:42:28.189Z,99808.31
2023-03-03T22:45:14.996Z,99799.69
2023-03-03T22:48:01.974Z,99806.72
2023-03-03T22:50:49.169Z,99811.19
2023-03-03T22:53:36.155Z,99799.00
2023-03-03T22:56:23.117Z,99807.81
2023-03-03T22:59:10.080Z,99805.22
2023-03-03T23:01:56.935Z,99797.41
2023-03-03T23:04:44.068Z,99807.13
2023-03-03T23:07:30.907Z,99816.81
2023-03-03T23:10:17.929Z,99811.72
2023-03-03T23:13:04.878Z,99815.34
2023-03-03T23:15:51.936Z,99810.25
2023-03-03T23:18:38.807Z,99813.91
2023-03-03T23:21:25.844Z,99803.56
2023-03-03T23:24:12.697Z,99818.47
2023-03-03T23:26:59.897Z,99819.47
2023-03-03T23:29:46.811Z,99804.78
2023-03-03T23:32:34.222Z,99815.28
2023-03-03T23:35:21.181Z,99822.31
2023-03-03T23:38:08.336Z,99830.31
2023-03-03T23:40:55.290Z,99825.16
2023-03-03T23:43:42.420Z,99815.66
2023-03-03T23:46:29.449Z,99818.81
2023-03-03T23:49:16.448Z,99817.66
2023-03-03T23:52:03.225Z,99833.47
2023-03-03T23:54:50.511Z,99832.72
2023-03-03T23:57:37.490Z,99842.38
